Terminal Aerodrome Forecast
Issued by NWS

Home | Current Version | Previous Version | Text Only | Print | Product List | Glossary On
Versions: 1 2 3 4 5 6 7 8 9 10 11 12 13 14
000
FTUS45 KTFX 222330
TAFCTB
TAF
KCTB 222330Z 2300/2324 02006KT P6SM SCT150
     FM230600 VRB05KT P6SM FEW200
     FM231600 20010KT P6SM SCT250
     FM231900 23014G22KT P6SM FEW200=

USA.gov is the U.S. government's official web portal to all federal, state and local government web resources and services.